createdAt,value
2022-12-06T00:01:45.036Z,101036.25
2022-12-06T00:04:11.208Z,101041.44
2022-12-06T00:06:39.717Z,101041.47
2022-12-06T00:09:11.247Z,101047.44
2022-12-06T00:11:42.073Z,101043.19
2022-12-06T00:14:08.523Z,101046.63
2022-12-06T00:16:40.827Z,101045.72
2022-12-06T00:19:10.272Z,101046.56
2022-12-06T00:21:40.724Z,101041.34
2022-12-06T00:24:06.943Z,101048.28
2022-12-06T00:26:33.087Z,101045.69
2022-12-06T00:28:59.365Z,101035.34
2022-12-06T00:31:25.688Z,101043.03
2022-12-06T00:33:51.945Z,101039.63
2022-12-06T00:36:18.151Z,101038.75
2022-12-06T00:38:44.310Z,101037.09
2022-12-06T00:41:10.476Z,101030.16
2022-12-06T00:43:36.679Z,101034.50
2022-12-06T00:46:03.025Z,101023.31
2022-12-06T00:48:29.255Z,101037.94
2022-12-06T00:50:55.426Z,101029.28
2022-12-06T00:53:21.602Z,101036.22
2022-12-06T00:55:47.727Z,101037.94
2022-12-06T00:58:14.003Z,101027.63
2022-12-06T01:00:40.334Z,101031.97
2022-12-06T01:03:06.651Z,101031.09
2022-12-06T01:05:32.974Z,101032.75
2022-12-06T01:07:59.243Z,101032.69
2022-12-06T01:10:25.469Z,101036.94
2022-12-06T01:12:51.599Z,101034.41
2022-12-06T01:15:17.759Z,101030.19
2022-12-06T01:17:44.176Z,101032.78
2022-12-06T01:20:10.376Z,101029.34
2022-12-06T01:22:36.598Z,101032.88
2022-12-06T01:25:02.742Z,101039.78
2022-12-06T01:27:28.940Z,101038.13
2022-12-06T01:29:55.080Z,101038.00
2022-12-06T01:32:21.220Z,101031.13
2022-12-06T01:34:47.394Z,101035.34
2022-12-06T01:37:13.579Z,101043.09
2022-12-06T01:39:39.795Z,101040.63
2022-12-06T01:42:06.207Z,101048.22
2022-12-06T01:44:32.638Z,101050.84
2022-12-06T01:46:58.788Z,101045.72
2022-12-06T01:49:25.125Z,101043.97
2022-12-06T01:51:51.282Z,101042.13
2022-12-06T01:54:17.482Z,101033.56
2022-12-06T01:56:43.722Z,101029.34
2022-12-06T01:59:09.943Z,101027.69
2022-12-06T02:01:36.243Z,101028.56
2022-12-06T02:04:02.510Z,101026.88
2022-12-06T02:06:28.665Z,101032.88
2022-12-06T02:08:54.912Z,101029.47
2022-12-06T02:11:21.141Z,101027.78
2022-12-06T02:13:47.371Z,101032.06
2022-12-06T02:16:13.688Z,101031.22
2022-12-06T02:18:40.000Z,101032.03
2022-12-06T02:21:06.212Z,101030.38
2022-12-06T02:23:32.432Z,101037.19
2022-12-06T02:25:58.643Z,101036.34
2022-12-06T02:28:24.802Z,101038.09
2022-12-06T02:30:51.045Z,101035.53
2022-12-06T02:33:17.295Z,101020.88
2022-12-06T02:35:43.480Z,101014.75
2022-12-06T02:38:13.004Z,101015.66
2022-12-06T02:40:39.586Z,101017.41
2022-12-06T02:43:05.771Z,101011.38
2022-12-06T02:45:31.976Z,101007.94
2022-12-06T02:47:58.169Z,101019.06
2022-12-06T02:50:24.364Z,101017.34
2022-12-06T02:52:50.544Z,101010.53
2022-12-06T02:55:16.747Z,101008.81
2022-12-06T02:57:42.926Z,101018.31
2022-12-06T03:00:09.155Z,101009.72
2022-12-06T03:02:35.437Z,101005.41
2022-12-06T03:05:01.781Z,101007.16
2022-12-06T03:07:27.999Z,101001.16
2022-12-06T03:09:54.203Z,101002.88
2022-12-06T03:12:20.411Z,101011.50
2022-12-06T03:14:46.651Z,101002.88
2022-12-06T03:17:12.842Z,101008.84
2022-12-06T03:19:39.074Z,101004.56
2022-12-06T03:22:05.289Z,101002.84
2022-12-06T03:24:31.480Z,101008.84
2022-12-06T03:26:57.701Z,101007.13
2022-12-06T03:29:23.898Z,101004.56
2022-12-06T03:31:50.112Z,101001.94
2022-12-06T03:34:16.302Z,101003.66
2022-12-06T03:36:42.462Z,101005.34
2022-12-06T03:39:08.706Z,101007.94
2022-12-06T03:41:34.883Z,101006.19
2022-12-06T03:44:01.057Z,101003.56
2022-12-06T03:46:28.157Z,101004.44
2022-12-06T03:48:54.566Z,101007.03
2022-12-06T03:51:20.761Z,100995.81
2022-12-06T03:53:46.999Z,100995.78
2022-12-06T03:56:13.196Z,101000.97
2022-12-06T03:58:39.741Z,100999.25
2022-12-06T04:01:05.969Z,101002.72
2022-12-06T04:03:32.221Z,101003.56
2022-12-06T04:05:58.456Z,100996.66
2022-12-06T04:08:24.649Z,100995.81
2022-12-06T04:10:50.840Z,100991.50
2022-12-06T04:13:19.733Z,100988.03
2022-12-06T04:15:46.373Z,100994.91
2022-12-06T04:18:12.753Z,100985.47
2022-12-06T04:20:38.946Z,100990.63
2022-12-06T04:23:05.140Z,100981.16
2022-12-06T04:25:31.319Z,100985.47
2022-12-06T04:27:57.518Z,100982.91
2022-12-06T04:30:23.703Z,100978.56
2022-12-06T04:32:49.830Z,100979.44
2022-12-06T04:35:16.005Z,100972.59
2022-12-06T04:37:42.200Z,100971.72
2022-12-06T04:40:08.388Z,100972.59
2022-12-06T04:42:34.557Z,100964.81
2022-12-06T04:45:00.722Z,100970.88
2022-12-06T04:50:07.063Z,100964.81
2022-12-06T04:52:35.899Z,100962.25
2022-12-06T04:55:02.496Z,100964.81
2022-12-06T04:57:31.518Z,100969.97
2022-12-06T04:59:58.030Z,100963.97
2022-12-06T05:02:24.448Z,100962.22
2022-12-06T05:04:50.633Z,100961.25
2022-12-06T05:07:16.815Z,100961.31
2022-12-06T05:09:43.048Z,100960.50
2022-12-06T05:12:09.204Z,100958.69
2022-12-06T05:14:35.490Z,100952.72
2022-12-06T05:17:01.662Z,100953.63
2022-12-06T05:19:30.728Z,100957.06
2022-12-06T05:21:57.160Z,100945.97
2022-12-06T05:24:23.315Z,100954.56
2022-12-06T05:26:49.472Z,100951.13
2022-12-06T05:29:15.651Z,100957.03
2022-12-06T05:31:41.872Z,100968.19
2022-12-06T05:34:08.046Z,100968.28
2022-12-06T05:36:34.183Z,100958.81
2022-12-06T05:39:00.312Z,100965.69
2022-12-06T05:41:26.489Z,100963.13
2022-12-06T05:43:52.694Z,100967.41
2022-12-06T05:46:18.972Z,100973.41
2022-12-06T05:48:45.181Z,100968.25
2022-12-06T05:51:11.318Z,100965.63
2022-12-06T05:53:37.481Z,100978.53
2022-12-06T05:56:03.612Z,100971.66
2022-12-06T05:58:29.752Z,100975.94
2022-12-06T06:00:55.898Z,100976.75
2022-12-06T06:03:22.120Z,100978.53
2022-12-06T06:05:48.349Z,100975.94
2022-12-06T06:08:14.642Z,100976.78
2022-12-06T06:10:40.825Z,100981.06
2022-12-06T06:13:55.794Z,100978.50
2022-12-06T06:15:55.732Z,100985.38
2022-12-06T06:18:21.887Z,100976.78
2022-12-06T06:20:48.128Z,100986.22
2022-12-06T06:23:14.251Z,100979.34
2022-12-06T06:25:40.403Z,100981.91
2022-12-06T06:28:06.572Z,100981.88
2022-12-06T06:30:32.714Z,100980.19
2022-12-06T06:32:58.966Z,100987.09
2022-12-06T06:35:25.093Z,100981.06
2022-12-06T06:37:51.211Z,100979.34
2022-12-06T06:40:17.387Z,100977.72
2022-12-06T06:42:43.551Z,100979.41
2022-12-06T06:45:09.712Z,100977.63
2022-12-06T06:47:35.904Z,100983.69
2022-12-06T06:53:00.389Z,100988.84
2022-12-06T06:55:26.504Z,100984.56
2022-12-06T06:57:52.645Z,100984.56
2022-12-06T07:00:18.836Z,100987.94
2022-12-06T07:02:47.918Z,100982.75
2022-12-06T07:05:14.293Z,100987.09
2022-12-06T07:07:40.900Z,100981.94
2022-12-06T07:10:07.061Z,100988.00
2022-12-06T07:12:33.215Z,100989.75
2022-12-06T07:14:59.619Z,100984.63
2022-12-06T07:17:25.872Z,100987.19
2022-12-06T07:19:52.100Z,100986.28
2022-12-06T07:22:18.293Z,100989.81
2022-12-06T07:24:49.174Z,100989.81
2022-12-06T07:27:18.428Z,100989.84
2022-12-06T07:29:44.608Z,100985.47
2022-12-06T07:32:12.853Z,100976.06
2022-12-06T07:34:39.050Z,100973.44
2022-12-06T07:37:05.377Z,100972.59
2022-12-06T07:39:31.545Z,100972.66
2022-12-06T07:41:57.729Z,100967.53
2022-12-06T07:44:23.961Z,100960.59
2022-12-06T07:46:50.219Z,100950.28
2022-12-06T07:49:16.396Z,100958.00
2022-12-06T07:51:42.534Z,100963.22
2022-12-06T07:54:08.757Z,100964.84
2022-12-06T07:56:34.931Z,100960.53
2022-12-06T07:59:01.241Z,100961.44
2022-12-06T08:01:27.616Z,100966.56
2022-12-06T08:03:53.801Z,100958.78
2022-12-06T08:06:19.987Z,100967.41
2022-12-06T08:08:46.164Z,100960.44
2022-12-06T08:11:12.487Z,100954.44
2022-12-06T08:13:38.672Z,100966.41
2022-12-06T08:16:05.048Z,100965.53
2022-12-06T08:18:31.294Z,100957.75
2022-12-06T08:20:57.491Z,100957.69
2022-12-06T08:23:26.821Z,100956.06
2022-12-06T08:25:55.559Z,100955.22
2022-12-06T08:28:21.887Z,100960.34
2022-12-06T08:30:48.162Z,100966.41
2022-12-06T08:33:14.401Z,100954.28
2022-12-06T08:35:40.715Z,100956.91
2022-12-06T08:38:09.451Z,100962.91
2022-12-06T08:40:35.670Z,100960.31
2022-12-06T08:43:01.832Z,100960.28
2022-12-06T08:45:28.038Z,100960.25
2022-12-06T08:47:54.229Z,100945.53
2022-12-06T08:50:20.532Z,100938.53
2022-12-06T08:52:46.955Z,100939.19
2022-12-06T08:55:13.313Z,100942.53
2022-12-06T08:57:39.520Z,100942.41
2022-12-06T09:00:05.716Z,100941.34
2022-12-06T09:02:31.880Z,100941.34
2022-12-06T09:04:58.098Z,100943.00
2022-12-06T09:07:24.339Z,100951.63
2022-12-06T09:09:50.536Z,100955.91
2022-12-06T09:12:16.662Z,100955.09
2022-12-06T09:14:42.810Z,100958.38
2022-12-06T09:17:09.011Z,100962.72
2022-12-06T09:19:35.149Z,100961.88
2022-12-06T09:22:01.331Z,100966.22
2022-12-06T09:24:27.530Z,100954.19
2022-12-06T09:26:53.751Z,100951.63
2022-12-06T09:29:19.983Z,100948.19
2022-12-06T09:31:51.141Z,100948.94
2022-12-06T09:34:17.360Z,100956.66
2022-12-06T09:36:43.497Z,100945.34
2022-12-06T09:39:09.649Z,100949.56
2022-12-06T09:41:35.846Z,100948.66
2022-12-06T09:44:02.208Z,100951.25
2022-12-06T09:46:33.163Z,100954.53
2022-12-06T09:49:02.624Z,100953.81
2022-12-06T09:51:29.169Z,100953.75
2022-12-06T09:56:38.482Z,100960.47
2022-12-06T09:59:04.641Z,100953.53
2022-12-06T10:01:30.951Z,100956.84
2022-12-06T10:03:57.197Z,100954.38
2022-12-06T10:06:23.385Z,100954.38
2022-12-06T10:08:49.613Z,100950.94
2022-12-06T10:11:15.881Z,100952.69
2022-12-06T10:13:42.062Z,100947.59
2022-12-06T10:16:08.315Z,100948.34
2022-12-06T10:18:34.492Z,100954.47
2022-12-06T10:21:00.634Z,100950.25
2022-12-06T10:23:26.806Z,100949.38
2022-12-06T10:25:52.993Z,100949.47
2022-12-06T10:28:19.202Z,100947.72
2022-12-06T10:30:45.397Z,100944.25
2022-12-06T10:33:11.520Z,100945.09
2022-12-06T10:35:37.724Z,100936.34
2022-12-06T10:38:03.921Z,100940.03
2022-12-06T10:40:30.149Z,100945.97
2022-12-06T10:42:56.385Z,100937.44
2022-12-06T10:45:24.996Z,100941.66
2022-12-06T10:47:51.380Z,100954.50
2022-12-06T10:50:17.582Z,100951.06
2022-12-06T10:52:43.756Z,100947.69
2022-12-06T10:55:09.968Z,100945.25
2022-12-06T10:57:36.146Z,100950.47
2022-12-06T11:00:04.023Z,100946.22
2022-12-06T11:02:30.577Z,100953.06
2022-12-06T11:04:56.754Z,100953.94
2022-12-06T11:07:22.900Z,100956.50
2022-12-06T11:09:49.068Z,100954.03
2022-12-06T11:12:15.252Z,100960.88
2022-12-06T11:14:41.403Z,100957.38
2022-12-06T11:17:07.565Z,100945.28
2022-12-06T11:19:33.712Z,100950.47
2022-12-06T11:21:59.953Z,100947.00
2022-12-06T11:24:26.137Z,100958.16
2022-12-06T11:26:52.329Z,100954.69
2022-12-06T11:29:18.538Z,100951.22
2022-12-06T11:31:44.784Z,100946.91
2022-12-06T11:34:10.965Z,100944.41
2022-12-06T11:36:37.132Z,100939.13
2022-12-06T11:39:03.274Z,100940.75
2022-12-06T11:41:29.469Z,100938.06
2022-12-06T11:43:55.594Z,100934.41
2022-12-06T11:46:21.794Z,100932.63
2022-12-06T11:48:47.967Z,100933.22
2022-12-06T11:51:14.113Z,100927.13
2022-12-06T11:53:40.260Z,100932.34
2022-12-06T11:56:06.405Z,100924.00
2022-12-06T11:58:32.617Z,100923.03
2022-12-06T12:00:58.760Z,100918.78
2022-12-06T12:03:24.993Z,100924.69
2022-12-06T12:05:51.181Z,100922.19
2022-12-06T12:08:17.366Z,100918.66
2022-12-06T12:10:43.625Z,100922.28
2022-12-06T12:13:09.790Z,100923.03
2022-12-06T12:15:35.974Z,100913.50
2022-12-06T12:18:02.141Z,100922.84
2022-12-06T12:20:28.258Z,100924.47
2022-12-06T12:22:54.434Z,100922.72
2022-12-06T12:25:20.801Z,100918.38
2022-12-06T12:27:47.121Z,100916.72
2022-12-06T12:30:13.279Z,100914.09
2022-12-06T12:32:39.486Z,100916.66
2022-12-06T12:35:05.692Z,100920.06
2022-12-06T12:37:31.910Z,100912.22
2022-12-06T12:39:58.048Z,100909.44
2022-12-06T12:42:24.237Z,100922.25
2022-12-06T12:44:50.422Z,100923.94
2022-12-06T12:47:16.618Z,100913.53
2022-12-06T12:49:42.784Z,100913.56
2022-12-06T12:52:08.988Z,100917.88
2022-12-06T12:54:35.324Z,100920.47
2022-12-06T12:57:01.525Z,100915.09
2022-12-06T12:59:27.702Z,100917.88
2022-12-06T13:01:54.053Z,100917.19
2022-12-06T13:04:20.312Z,100912.22
2022-12-06T13:06:46.503Z,100912.09
2022-12-06T13:09:12.643Z,100911.22
2022-12-06T13:11:38.793Z,100918.81
2022-12-06T13:14:04.958Z,100914.50
2022-12-06T13:16:31.247Z,100905.78
2022-12-06T13:18:57.465Z,100899.78
2022-12-06T13:21:23.634Z,100904.09
2022-12-06T13:23:49.812Z,100903.19
2022-12-06T13:26:16.112Z,100895.53
2022-12-06T13:28:42.293Z,100898.25
2022-12-06T13:31:08.511Z,100899.09
2022-12-06T13:33:34.736Z,100895.56
2022-12-06T13:36:00.910Z,100905.88
2022-12-06T13:38:27.255Z,100905.03
2022-12-06T13:40:53.407Z,100904.22
2022-12-06T13:43:19.607Z,100898.97
2022-12-06T13:45:45.929Z,100894.63
2022-12-06T13:48:12.102Z,100899.13
2022-12-06T13:50:38.273Z,100893.94
2022-12-06T13:53:04.479Z,100903.28
2022-12-06T13:55:30.606Z,100898.94
2022-12-06T13:57:56.738Z,100902.34
2022-12-06T14:00:22.926Z,100903.16
2022-12-06T14:02:49.199Z,100903.19
2022-12-06T14:05:15.452Z,100904.94
2022-12-06T14:07:41.622Z,100903.38
2022-12-06T14:10:07.826Z,100902.47
2022-12-06T14:12:34.042Z,100907.56
2022-12-06T14:15:00.242Z,100903.56
2022-12-06T14:17:59.230Z,100904.53
2022-12-06T14:20:12.624Z,100909.69
2022-12-06T14:22:38.850Z,100901.97
2022-12-06T14:25:05.013Z,100908.09
2022-12-06T14:27:31.179Z,100909.06
2022-12-06T14:29:57.569Z,100908.97
2022-12-06T14:32:23.899Z,100912.56
2022-12-06T14:34:50.226Z,100899.66
2022-12-06T14:37:16.376Z,100905.75
2022-12-06T14:39:42.578Z,100898.06
2022-12-06T14:42:08.778Z,100903.31
2022-12-06T14:44:34.937Z,100899.00
2022-12-06T14:47:01.272Z,100897.34
2022-12-06T14:49:27.438Z,100899.09
2022-12-06T14:51:53.700Z,100899.94
2022-12-06T14:54:19.898Z,100900.75
2022-12-06T14:56:46.098Z,100897.41
2022-12-06T14:59:12.281Z,100899.19
2022-12-06T15:01:38.659Z,100898.34
2022-12-06T15:04:04.926Z,100900.97
2022-12-06T15:06:31.267Z,100898.28
2022-12-06T15:08:57.442Z,100901.75
2022-12-06T15:11:23.637Z,100901.72
2022-12-06T15:13:49.818Z,100899.16
2022-12-06T15:16:16.018Z,100897.50
2022-12-06T15:18:42.261Z,100904.44
2022-12-06T15:21:08.444Z,100903.56
2022-12-06T15:23:34.658Z,100904.41
2022-12-06T15:26:00.783Z,100900.22
2022-12-06T15:28:26.886Z,100898.47
2022-12-06T15:30:53.070Z,100905.41
2022-12-06T15:33:19.263Z,100897.72
2022-12-06T15:35:45.390Z,100898.53
2022-12-06T15:38:11.781Z,100897.72
2022-12-06T15:40:37.907Z,100893.50
2022-12-06T15:43:04.051Z,100895.22
2022-12-06T15:45:30.240Z,100892.59
2022-12-06T15:47:56.365Z,100898.63
2022-12-06T15:50:22.488Z,100897.78
2022-12-06T15:52:48.709Z,100905.56
2022-12-06T15:55:21.140Z,100906.44
2022-12-06T15:57:47.295Z,100898.66
2022-12-06T16:00:13.474Z,100902.09
2022-12-06T16:02:39.658Z,100904.69
2022-12-06T16:05:05.812Z,100903.84
2022-12-06T16:07:32.270Z,100902.97
2022-12-06T16:09:58.793Z,100908.13
2022-12-06T16:12:24.964Z,100907.25
2022-12-06T16:14:51.335Z,100911.56
2022-12-06T16:17:17.502Z,100908.13
2022-12-06T16:19:43.633Z,100912.44
2022-12-06T16:22:09.801Z,100912.47
2022-12-06T16:24:35.952Z,100906.41
2022-12-06T16:27:02.080Z,100912.44
2022-12-06T16:29:28.232Z,100912.31
2022-12-06T16:31:54.475Z,100914.09
2022-12-06T16:34:20.730Z,100915.78
2022-12-06T16:36:46.881Z,100924.38
2022-12-06T16:39:13.080Z,100914.97
2022-12-06T16:41:39.304Z,100914.16
2022-12-06T16:44:05.559Z,100911.56
2022-12-06T16:46:31.772Z,100914.16
2022-12-06T16:49:10.650Z,100909.00
2022-12-06T16:51:44.171Z,100908.16
2022-12-06T16:54:10.345Z,100906.44
2022-12-06T16:56:41.371Z,100902.97
2022-12-06T16:59:07.915Z,100914.22
2022-12-06T17:01:34.092Z,100907.31
2022-12-06T17:04:00.230Z,100907.34
2022-12-06T17:06:26.575Z,100912.50
2022-12-06T17:08:52.778Z,100905.66
2022-12-06T17:11:18.921Z,100907.38
2022-12-06T17:13:45.088Z,100906.53
2022-12-06T17:16:17.944Z,100904.88
2022-12-06T17:18:44.171Z,100905.72
2022-12-06T17:21:13.175Z,100910.06
2022-12-06T17:23:43.062Z,100904.06
2022-12-06T17:26:09.307Z,100910.13
2022-12-06T17:28:35.506Z,100906.69
2022-12-06T17:31:01.712Z,100903.19
2022-12-06T17:33:27.954Z,100908.41
2022-12-06T17:35:54.155Z,100906.72
2022-12-06T17:38:20.322Z,100900.66
2022-12-06T17:40:46.525Z,100902.41
2022-12-06T17:43:12.695Z,100904.97
2022-12-06T17:45:38.895Z,100909.28
2022-12-06T17:48:05.113Z,100907.56
2022-12-06T17:50:31.312Z,100911.00
2022-12-06T17:52:57.713Z,100906.63
2022-12-06T17:55:23.932Z,100905.81
2022-12-06T17:57:55.935Z,100909.25
2022-12-06T18:00:22.077Z,100917.88
2022-12-06T18:02:48.653Z,100912.75
2022-12-06T18:05:14.975Z,100909.19
2022-12-06T18:07:41.195Z,100913.50
2022-12-06T18:10:07.369Z,100913.59
2022-12-06T18:12:34.970Z,100915.34
2022-12-06T18:15:01.522Z,100918.78
2022-12-06T18:17:27.817Z,100925.66
2022-12-06T18:19:54.079Z,100925.69
2022-12-06T18:22:20.248Z,100922.22
2022-12-06T18:24:46.447Z,100918.78
2022-12-06T18:27:12.686Z,100923.94
2022-12-06T18:29:39.201Z,100929.19
2022-12-06T18:32:05.447Z,100929.16
2022-12-06T18:34:31.718Z,100927.47
2022-12-06T18:36:58.188Z,100924.88
2022-12-06T18:39:24.411Z,100929.19
2022-12-06T18:41:50.699Z,100924.91
2022-12-06T18:44:16.925Z,100932.63
2022-12-06T18:46:43.119Z,100936.97
2022-12-06T18:49:09.326Z,100924.03
2022-12-06T18:51:35.564Z,100934.34
2022-12-06T18:54:01.738Z,100933.47
2022-12-06T18:56:27.926Z,100927.34
2022-12-06T18:58:54.118Z,100925.69
2022-12-06T19:01:20.408Z,100924.91
2022-12-06T19:03:46.620Z,100931.81
2022-12-06T19:06:12.808Z,100922.38
2022-12-06T19:08:38.998Z,100935.28
2022-12-06T19:11:05.188Z,100933.56
2022-12-06T19:13:31.417Z,100942.13
2022-12-06T19:15:57.599Z,100943.00
2022-12-06T19:18:23.801Z,100930.91
2022-12-06T19:20:57.204Z,100936.97
2022-12-06T19:23:23.371Z,100930.06
2022-12-06T19:25:51.566Z,100924.06
2022-12-06T19:28:17.736Z,100918.06
2022-12-06T19:30:43.981Z,100921.53
2022-12-06T19:33:10.115Z,100916.38
2022-12-06T19:35:36.232Z,100918.94
2022-12-06T19:38:02.401Z,100917.19
2022-12-06T19:40:28.580Z,100925.81
2022-12-06T19:42:54.770Z,100922.31
2022-12-06T19:45:20.971Z,100924.00
2022-12-06T19:47:47.130Z,100922.28
2022-12-06T19:50:13.383Z,100925.78
2022-12-06T19:52:39.618Z,100927.59
2022-12-06T19:55:05.877Z,100923.38
2022-12-06T19:57:32.040Z,100922.56
2022-12-06T19:59:58.326Z,100925.16
2022-12-06T20:02:24.689Z,100930.41
2022-12-06T20:04:51.087Z,100928.75
2022-12-06T20:07:17.306Z,100926.19
2022-12-06T20:09:43.490Z,100934.84
2022-12-06T20:12:09.690Z,100936.59
2022-12-06T20:14:35.915Z,100925.47
2022-12-06T20:17:02.137Z,100936.66
2022-12-06T20:19:28.324Z,100933.25
2022-12-06T20:21:54.527Z,100934.19
2022-12-06T20:24:20.665Z,100939.34
2022-12-06T20:26:46.878Z,100931.63
2022-12-06T20:29:13.080Z,100941.13
2022-12-06T20:31:39.310Z,100948.06
2022-12-06T20:34:08.928Z,100941.16
2022-12-06T20:36:37.779Z,100942.94
2022-12-06T20:39:03.975Z,100944.72
2022-12-06T20:41:30.118Z,100946.44
2022-12-06T20:43:56.301Z,100944.75
2022-12-06T20:46:22.532Z,100945.56
2022-12-06T20:48:48.717Z,100944.78
2022-12-06T20:51:14.855Z,100951.69
2022-12-06T20:53:41.046Z,100943.91
2022-12-06T20:56:08.272Z,100945.69
2022-12-06T20:58:34.578Z,100947.44
2022-12-06T21:01:01.957Z,100943.19
2022-12-06T21:03:28.249Z,100945.75
2022-12-06T21:05:55.473Z,100938.88
2022-12-06T21:08:21.763Z,100942.31
2022-12-06T21:11:14.257Z,100946.63
2022-12-06T21:13:34.068Z,100941.44
2022-12-06T21:16:00.289Z,100942.25
2022-12-06T21:18:29.960Z,100949.94
2022-12-06T21:20:56.280Z,100942.16
2022-12-06T21:23:22.451Z,100949.91
2022-12-06T21:25:48.650Z,100945.63
2022-12-06T21:28:14.867Z,100937.91
2022-12-06T21:30:41.036Z,100945.63
2022-12-06T21:33:07.217Z,100944.78
2022-12-06T21:35:33.470Z,100946.56
2022-12-06T21:37:59.873Z,100948.28
2022-12-06T21:40:26.082Z,100951.72
2022-12-06T21:42:52.244Z,100947.44
2022-12-06T21:45:18.400Z,100949.16
2022-12-06T21:47:44.576Z,100950.09
2022-12-06T21:50:10.744Z,100948.38
2022-12-06T21:52:36.968Z,100939.00
2022-12-06T21:55:03.193Z,100950.22
2022-12-06T21:57:29.344Z,100946.81
2022-12-06T21:59:55.545Z,100941.69
2022-12-06T22:02:21.768Z,100952.03
2022-12-06T22:04:47.997Z,100958.09
2022-12-06T22:07:14.196Z,100961.53
2022-12-06T22:09:40.403Z,100958.13
2022-12-06T22:12:06.811Z,100966.78
2022-12-06T22:14:32.962Z,100962.44
2022-12-06T22:16:59.137Z,100971.13
2022-12-06T22:19:25.353Z,100958.22
2022-12-06T22:21:51.589Z,100966.00
2022-12-06T22:24:17.787Z,100965.16
2022-12-06T22:26:44.012Z,100963.47
2022-12-06T22:29:10.208Z,100968.66
2022-12-06T22:31:36.402Z,100972.13
2022-12-06T22:34:02.612Z,100963.53
2022-12-06T22:36:28.818Z,100961.84
2022-12-06T22:38:54.985Z,100970.44
2022-12-06T22:41:21.144Z,100967.03
2022-12-06T22:43:47.316Z,100964.50
2022-12-06T22:46:13.571Z,100968.81
2022-12-06T22:48:39.784Z,100964.56
2022-12-06T22:51:05.943Z,100962.88
2022-12-06T22:53:32.087Z,100958.63
2022-12-06T22:55:58.262Z,100963.00
2022-12-06T22:58:24.416Z,100963.97
2022-12-06T23:00:50.584Z,100964.91
2022-12-06T23:03:16.776Z,100972.78
2022-12-06T23:05:42.982Z,100962.56
2022-12-06T23:08:09.244Z,100960.13
2022-12-06T23:10:35.437Z,100963.66
2022-12-06T23:13:01.645Z,100961.19
2022-12-06T23:15:27.782Z,100971.56
2022-12-06T23:17:54.015Z,100969.88
2022-12-06T23:20:21.318Z,100969.97
2022-12-06T23:22:47.474Z,100977.72
2022-12-06T23:25:13.697Z,100968.31
2022-12-06T23:27:39.889Z,100970.06
2022-12-06T23:30:06.013Z,100977.78
2022-12-06T23:32:32.184Z,100973.53
2022-12-06T23:34:58.364Z,100976.88
2022-12-06T23:37:24.574Z,100978.53
2022-12-06T23:39:50.712Z,100973.47
2022-12-06T23:42:16.896Z,100982.13
2022-12-06T23:44:43.127Z,100972.72
2022-12-06T23:47:09.324Z,100977.88
2022-12-06T23:49:35.506Z,100981.31
2022-12-06T23:52:01.711Z,100975.28
2022-12-06T23:54:27.866Z,100984.69
2022-12-06T23:56:54.039Z,100980.41
2022-12-06T23:59:20.187Z,100976.97
